createdAt,value
2023-03-03T00:00:22.290Z,1.73
2023-03-03T00:02:48.803Z,1.73
2023-03-03T00:05:17.113Z,1.75
2023-03-03T00:07:44.215Z,1.72
2023-03-03T00:10:11.008Z,1.69
2023-03-03T00:12:46.113Z,1.70
2023-03-03T00:15:16.817Z,1.63
2023-03-03T00:17:43.342Z,1.57
2023-03-03T00:20:28.698Z,1.52
2023-03-03T00:22:55.466Z,1.46
2023-03-03T00:25:29.095Z,1.46
2023-03-03T00:27:55.993Z,1.43
2023-03-03T00:30:26.348Z,1.42
2023-03-03T00:32:53.550Z,1.38
2023-03-03T00:35:28.075Z,1.35
2023-03-03T00:37:55.545Z,1.34
2023-03-03T00:40:40.490Z,1.30
2023-03-03T00:43:22.421Z,1.29
2023-03-03T00:45:52.473Z,1.26
2023-03-03T00:48:29.457Z,1.25
2023-03-03T00:50:56.743Z,1.23
2023-03-03T00:53:23.808Z,1.20
2023-03-03T00:55:50.999Z,1.18
2023-03-03T00:58:18.684Z,1.18
2023-03-03T01:00:46.924Z,1.18
2023-03-03T01:03:17.539Z,1.16
2023-03-03T01:05:44.314Z,1.15
2023-03-03T01:08:10.973Z,1.14
2023-03-03T01:10:38.860Z,1.11
2023-03-03T01:13:05.725Z,1.11
2023-03-03T01:15:32.277Z,1.09
2023-03-03T01:17:59.061Z,1.08
2023-03-03T01:20:25.596Z,1.06
2023-03-03T01:22:52.089Z,1.10
2023-03-03T01:25:18.595Z,1.07
2023-03-03T01:27:45.564Z,1.04
2023-03-03T01:30:12.462Z,1.04
2023-03-03T01:32:39.090Z,1.01
2023-03-03T01:35:05.799Z,0.98
2023-03-03T01:37:32.300Z,0.94
2023-03-03T01:39:58.802Z,0.96
2023-03-03T01:45:25.099Z,1.03
2023-03-03T01:47:53.093Z,1.04
2023-03-03T01:50:31.121Z,1.02
2023-03-03T01:52:58.130Z,0.98
2023-03-03T01:55:26.474Z,0.99
2023-03-03T01:58:03.747Z,0.98
2023-03-03T02:00:30.239Z,0.95
2023-03-03T02:02:56.944Z,0.88
2023-03-03T02:05:23.474Z,0.60
2023-03-03T02:07:50.524Z,0.60
2023-03-03T02:10:18.142Z,0.58
2023-03-03T02:12:44.717Z,0.59
2023-03-03T02:15:20.568Z,0.57
2023-03-03T02:17:47.240Z,0.56
2023-03-03T02:20:47.471Z,0.59
2023-03-03T02:23:20.028Z,0.58
2023-03-03T02:25:58.817Z,0.63
2023-03-03T02:28:28.673Z,0.63
2023-03-03T02:30:56.143Z,0.61
2023-03-03T02:33:23.905Z,0.61
2023-03-03T02:35:50.620Z,0.59
2023-03-03T02:38:23.391Z,0.58
2023-03-03T02:40:53.840Z,0.57
2023-03-03T02:43:21.148Z,0.55
2023-03-03T02:45:47.816Z,0.55
2023-03-03T02:48:14.554Z,0.54
2023-03-03T02:50:41.150Z,0.54
2023-03-03T02:53:07.768Z,0.51
2023-03-03T02:55:34.743Z,0.53
2023-03-03T02:58:01.388Z,0.56
2023-03-03T03:00:27.942Z,0.58
2023-03-03T03:02:54.583Z,0.63
2023-03-03T03:05:22.331Z,0.67
2023-03-03T03:07:48.842Z,0.74
2023-03-03T03:10:15.528Z,0.80
2023-03-03T03:12:42.094Z,0.83
2023-03-03T03:15:10.998Z,0.83
2023-03-03T03:17:38.433Z,0.84
2023-03-03T03:20:06.171Z,0.87
2023-03-03T03:22:33.011Z,0.87
2023-03-03T03:24:59.586Z,0.88
2023-03-03T03:27:26.363Z,0.81
2023-03-03T03:29:52.948Z,0.79
2023-03-03T03:32:20.541Z,0.78
2023-03-03T03:34:47.207Z,0.82
2023-03-03T03:37:14.454Z,0.85
2023-03-03T03:39:42.660Z,0.85
2023-03-03T03:42:09.483Z,0.84
2023-03-03T03:44:36.063Z,0.82
2023-03-03T03:47:03.977Z,0.79
2023-03-03T03:49:30.586Z,0.76
2023-03-03T03:51:58.035Z,0.75
2023-03-03T03:54:28.199Z,0.75
2023-03-03T03:56:54.984Z,0.75
2023-03-03T03:59:22.654Z,0.68
2023-03-03T04:01:50.191Z,0.76
2023-03-03T04:04:17.456Z,0.83
2023-03-03T04:06:43.976Z,0.96
2023-03-03T04:09:11.415Z,1.09
2023-03-03T04:11:38.382Z,1.15
2023-03-03T04:14:06.907Z,1.24
2023-03-03T04:16:35.063Z,1.30
2023-03-03T04:19:01.564Z,1.41
2023-03-03T04:21:28.187Z,1.44
2023-03-03T04:23:57.097Z,1.46
2023-03-03T04:26:26.897Z,1.54
2023-03-03T04:28:53.463Z,1.59
2023-03-03T04:31:21.280Z,1.60
2023-03-03T04:33:48.420Z,1.64
2023-03-03T04:36:14.957Z,1.56
2023-03-03T04:38:41.601Z,1.50
2023-03-03T04:41:08.134Z,1.54
2023-03-03T04:43:37.489Z,1.54
2023-03-03T04:46:04.956Z,1.57
2023-03-03T04:48:31.835Z,1.64
2023-03-03T04:50:59.175Z,1.71
2023-03-03T04:53:26.390Z,1.74
2023-03-03T04:55:53.712Z,1.80
2023-03-03T04:58:21.385Z,1.86
2023-03-03T05:00:48.312Z,1.90
2023-03-03T05:03:14.912Z,1.97
2023-03-03T05:05:42.301Z,1.96
2023-03-03T05:08:08.864Z,2.00
2023-03-03T05:10:35.508Z,2.03
2023-03-03T05:13:02.033Z,2.05
2023-03-03T05:15:28.581Z,2.09
2023-03-03T05:17:56.553Z,2.11
2023-03-03T05:20:23.591Z,1.96
2023-03-03T05:22:50.095Z,1.89
2023-03-03T05:25:16.731Z,1.89
2023-03-03T05:27:43.859Z,1.91
2023-03-03T05:30:10.823Z,1.85
2023-03-03T05:32:37.676Z,1.86
2023-03-03T05:35:04.829Z,1.87
2023-03-03T05:37:31.333Z,1.84
2023-03-03T05:39:57.870Z,1.84
2023-03-03T05:42:24.436Z,1.83
2023-03-03T05:44:50.974Z,1.88
2023-03-03T05:47:17.610Z,1.94
2023-03-03T05:49:44.138Z,1.99
2023-03-03T05:52:10.729Z,1.98
2023-03-03T05:54:37.253Z,1.98
2023-03-03T05:57:03.787Z,1.95
2023-03-03T05:59:30.416Z,1.95
2023-03-03T06:01:57.068Z,1.84
2023-03-03T06:04:23.669Z,1.83
2023-03-03T06:06:50.266Z,1.84
2023-03-03T06:09:19.155Z,1.88
2023-03-03T06:11:45.765Z,1.91
2023-03-03T06:14:12.689Z,1.89
2023-03-03T06:16:39.646Z,1.91
2023-03-03T06:19:06.227Z,1.95
2023-03-03T06:21:32.751Z,1.95
2023-03-03T06:23:59.324Z,1.96
2023-03-03T06:26:25.826Z,1.98
2023-03-03T06:28:54.145Z,1.91
2023-03-03T06:31:20.952Z,1.94
2023-03-03T06:33:47.506Z,1.94
2023-03-03T06:36:14.025Z,2.01
2023-03-03T06:38:40.564Z,2.08
2023-03-03T06:41:08.544Z,2.13
2023-03-03T06:43:35.542Z,2.14
2023-03-03T06:46:02.231Z,2.15
2023-03-03T06:48:29.643Z,2.11
2023-03-03T06:50:56.146Z,1.95
2023-03-03T06:53:22.740Z,1.85
2023-03-03T06:55:49.781Z,2.03
2023-03-03T06:58:20.338Z,2.03
2023-03-03T07:00:50.911Z,1.91
2023-03-03T07:03:18.634Z,2.05
2023-03-03T07:05:45.297Z,2.00
2023-03-03T07:08:19.144Z,1.98
2023-03-03T07:10:45.974Z,2.11
2023-03-03T07:13:22.964Z,2.11
2023-03-03T07:15:50.091Z,2.16
2023-03-03T07:21:37.984Z,2.20
2023-03-03T07:24:18.829Z,2.23
2023-03-03T07:26:45.339Z,2.19
2023-03-03T07:29:26.306Z,2.49
2023-03-03T07:31:53.741Z,2.58
2023-03-03T07:34:23.260Z,2.54
2023-03-03T07:36:50.327Z,2.58
2023-03-03T07:39:39.031Z,2.64
2023-03-03T07:42:14.449Z,2.62
2023-03-03T07:44:40.961Z,2.82
2023-03-03T07:47:16.168Z,2.94
2023-03-03T07:49:43.402Z,2.69
2023-03-03T07:52:28.700Z,2.76
2023-03-03T07:54:59.423Z,2.71
2023-03-03T07:57:27.356Z,2.58
2023-03-03T07:59:55.218Z,2.79
2023-03-03T08:02:34.322Z,2.84
2023-03-03T08:05:03.934Z,2.94
2023-03-03T08:07:32.196Z,3.06
2023-03-03T08:09:59.205Z,3.07
2023-03-03T08:12:29.511Z,3.08
2023-03-03T08:14:56.084Z,3.23
2023-03-03T08:17:35.493Z,3.18
2023-03-03T08:20:01.965Z,3.48
2023-03-03T08:22:30.675Z,3.36
2023-03-03T08:24:57.162Z,3.35
2023-03-03T08:27:23.702Z,3.52
2023-03-03T08:29:50.347Z,3.48
2023-03-03T08:32:17.070Z,3.59
2023-03-03T08:34:43.660Z,3.97
2023-03-03T08:37:10.175Z,4.31
2023-03-03T08:39:36.896Z,4.47
2023-03-03T08:42:03.459Z,4.68
2023-03-03T08:44:30.002Z,4.97
2023-03-03T08:46:56.483Z,4.93
2023-03-03T08:49:23.260Z,5.27
2023-03-03T08:51:49.744Z,5.31
2023-03-03T08:54:17.839Z,5.16
2023-03-03T08:56:44.353Z,5.39
2023-03-03T08:59:11.538Z,5.19
2023-03-03T09:01:38.125Z,5.39
2023-03-03T09:04:04.693Z,5.35
2023-03-03T09:06:31.159Z,5.14
2023-03-03T09:08:57.722Z,4.91
2023-03-03T09:11:26.346Z,4.94
2023-03-03T09:13:54.782Z,4.79
2023-03-03T09:16:22.391Z,4.86
2023-03-03T09:18:48.971Z,4.76
2023-03-03T09:21:22.797Z,4.85
2023-03-03T09:23:50.390Z,4.89
2023-03-03T09:26:19.848Z,5.10
2023-03-03T09:28:46.342Z,5.14
2023-03-03T09:31:24.783Z,5.35
2023-03-03T09:33:52.090Z,5.44
2023-03-03T09:36:20.970Z,5.73
2023-03-03T09:38:47.539Z,5.99
2023-03-03T09:41:20.318Z,6.38
2023-03-03T09:43:55.849Z,6.48
2023-03-03T09:46:31.301Z,6.62
2023-03-03T09:49:26.350Z,6.59
2023-03-03T09:51:56.040Z,6.97
2023-03-03T09:54:26.408Z,7.17
2023-03-03T09:57:14.044Z,7.03
2023-03-03T09:59:52.714Z,6.79
2023-03-03T10:02:25.271Z,7.12
2023-03-03T10:04:54.710Z,7.32
2023-03-03T10:07:27.194Z,7.54
2023-03-03T10:09:54.255Z,7.60
2023-03-03T10:12:24.761Z,7.67
2023-03-03T10:14:57.500Z,7.78
2023-03-03T10:17:31.631Z,7.93
2023-03-03T10:19:58.102Z,8.01
2023-03-03T10:22:35.271Z,7.72
2023-03-03T10:25:25.114Z,7.23
2023-03-03T10:27:54.357Z,7.13
2023-03-03T10:30:40.845Z,6.99
2023-03-03T10:33:12.451Z,7.14
2023-03-03T10:36:04.559Z,7.54
2023-03-03T10:38:41.977Z,7.46
2023-03-03T10:41:12.159Z,7.25
2023-03-03T10:43:57.949Z,7.64
2023-03-03T10:46:27.521Z,7.81
2023-03-03T10:48:56.909Z,7.91
2023-03-03T10:51:26.416Z,7.96
2023-03-03T10:54:00.053Z,8.05
2023-03-03T10:56:51.721Z,8.09
2023-03-03T10:59:32.270Z,8.20
2023-03-03T11:02:22.641Z,8.23
2023-03-03T11:05:02.339Z,8.56
2023-03-03T11:07:31.526Z,8.35
2023-03-03T11:10:04.214Z,8.38
2023-03-03T11:12:47.351Z,8.34
2023-03-03T11:15:19.580Z,8.46
2023-03-03T11:17:58.986Z,8.40
2023-03-03T11:20:36.092Z,8.20
2023-03-03T11:23:06.913Z,8.14
2023-03-03T11:25:42.704Z,8.08
2023-03-03T11:28:12.535Z,8.36
2023-03-03T11:30:51.216Z,8.35
2023-03-03T11:33:20.534Z,8.20
2023-03-03T11:36:05.640Z,8.33
2023-03-03T11:38:34.623Z,8.77
2023-03-03T11:41:03.815Z,8.40
2023-03-03T11:43:36.918Z,8.59
2023-03-03T11:46:06.205Z,8.55
2023-03-03T11:48:35.426Z,8.49
2023-03-03T11:51:21.140Z,8.77
2023-03-03T11:53:47.587Z,8.31
2023-03-03T11:56:22.650Z,8.46
2023-03-03T11:58:51.823Z,8.40
2023-03-03T12:01:18.306Z,8.89
2023-03-03T12:03:54.792Z,8.97
2023-03-03T12:06:40.790Z,9.15
2023-03-03T12:09:26.016Z,8.97
2023-03-03T12:11:57.516Z,9.20
2023-03-03T12:14:36.172Z,9.93
2023-03-03T12:17:21.409Z,10.36
2023-03-03T12:19:54.623Z,10.44
2023-03-03T12:22:29.838Z,11.15
2023-03-03T12:25:15.300Z,11.40
2023-03-03T12:27:41.920Z,11.96
2023-03-03T12:30:10.828Z,11.97
2023-03-03T12:33:12.746Z,12.19
2023-03-03T12:35:43.562Z,11.92
2023-03-03T12:38:10.435Z,11.68
2023-03-03T12:40:40.611Z,11.25
2023-03-03T12:43:25.980Z,11.36
2023-03-03T12:45:55.553Z,11.10
2023-03-03T12:48:24.920Z,11.02
2023-03-03T12:51:00.991Z,10.44
2023-03-03T12:53:33.714Z,10.13
2023-03-03T12:56:00.740Z,10.04
2023-03-03T12:58:46.519Z,10.03
2023-03-03T13:01:35.231Z,10.03
2023-03-03T13:04:08.070Z,10.27
2023-03-03T13:07:07.101Z,10.03
2023-03-03T13:09:33.759Z,10.11
2023-03-03T13:12:07.187Z,10.19
2023-03-03T13:14:49.193Z,10.31
2023-03-03T13:17:18.581Z,10.30
2023-03-03T13:20:11.661Z,10.13
2023-03-03T13:22:40.124Z,10.13
2023-03-03T13:25:06.689Z,10.23
2023-03-03T13:27:38.209Z,10.24
2023-03-03T13:30:23.721Z,10.06
2023-03-03T13:32:53.533Z,10.15
2023-03-03T13:35:27.930Z,9.94
2023-03-03T13:37:55.441Z,10.01
2023-03-03T13:40:39.983Z,10.15
2023-03-03T13:43:20.215Z,10.08
2023-03-03T13:45:50.589Z,9.95
2023-03-03T13:48:46.841Z,9.84
2023-03-03T13:51:16.278Z,9.79
2023-03-03T13:53:49.313Z,9.91
2023-03-03T13:56:22.840Z,9.71
2023-03-03T13:59:02.330Z,9.84
2023-03-03T14:01:48.266Z,9.82
2023-03-03T14:04:27.498Z,9.98
2023-03-03T14:07:00.402Z,9.88
2023-03-03T14:09:27.048Z,9.97
2023-03-03T14:12:12.749Z,9.85
2023-03-03T14:14:45.354Z,9.87
2023-03-03T14:17:16.996Z,9.75
2023-03-03T14:19:58.059Z,9.68
2023-03-03T14:22:33.856Z,9.68
2023-03-03T14:25:07.935Z,9.60
2023-03-03T14:28:00.164Z,9.58
2023-03-03T14:30:28.316Z,9.67
2023-03-03T14:33:10.318Z,9.68
2023-03-03T14:35:43.947Z,9.71
2023-03-03T14:38:15.103Z,9.78
2023-03-03T14:40:45.642Z,9.83
2023-03-03T14:43:24.926Z,9.77
2023-03-03T14:45:52.110Z,9.73
2023-03-03T14:48:18.700Z,9.77
2023-03-03T14:50:53.118Z,9.71
2023-03-03T14:53:19.682Z,9.64
2023-03-03T14:55:47.462Z,9.60
2023-03-03T14:58:26.339Z,9.45
2023-03-03T15:01:08.050Z,9.50
2023-03-03T15:03:38.185Z,9.42
2023-03-03T15:06:14.854Z,9.41
2023-03-03T15:08:41.770Z,9.39
2023-03-03T15:11:17.262Z,9.49
2023-03-03T15:13:44.134Z,9.48
2023-03-03T15:16:22.336Z,9.36
2023-03-03T15:18:51.694Z,9.37
2023-03-03T15:21:19.259Z,9.27
2023-03-03T15:23:51.905Z,9.42
2023-03-03T15:26:30.349Z,9.40
2023-03-03T15:29:06.125Z,9.32
2023-03-03T15:31:51.029Z,9.26
2023-03-03T15:34:29.048Z,9.16
2023-03-03T15:37:13.768Z,9.11
2023-03-03T15:39:40.359Z,9.10
2023-03-03T15:42:19.060Z,9.09
2023-03-03T15:44:45.775Z,9.11
2023-03-03T15:47:27.659Z,8.99
2023-03-03T15:49:54.344Z,8.97
2023-03-03T15:52:22.902Z,8.92
2023-03-03T15:55:11.740Z,8.82
2023-03-03T15:57:41.853Z,8.78
2023-03-03T16:00:27.057Z,8.79
2023-03-03T16:02:58.834Z,8.68
2023-03-03T16:05:36.188Z,8.65
2023-03-03T16:08:02.691Z,8.50
2023-03-03T16:10:29.177Z,8.55
2023-03-03T16:13:18.955Z,8.45
2023-03-03T16:15:52.421Z,8.38
2023-03-03T16:18:25.308Z,8.29
2023-03-03T16:20:57.856Z,8.18
2023-03-03T16:23:30.140Z,8.12
2023-03-03T16:26:02.823Z,8.15
2023-03-03T16:28:38.325Z,8.10
2023-03-03T16:31:11.008Z,7.98
2023-03-03T16:33:37.499Z,7.88
2023-03-03T16:36:08.473Z,7.86
2023-03-03T16:38:45.870Z,7.70
2023-03-03T16:41:21.891Z,7.58
2023-03-03T16:43:51.494Z,7.43
2023-03-03T16:46:33.019Z,7.23
2023-03-03T16:49:18.106Z,7.09
2023-03-03T16:52:04.150Z,6.96
2023-03-03T16:54:33.427Z,6.83
2023-03-03T16:57:02.947Z,6.76
2023-03-03T16:59:35.745Z,6.65
2023-03-03T17:02:13.085Z,6.55
2023-03-03T17:04:59.543Z,6.44
2023-03-03T17:07:26.003Z,6.28
2023-03-03T17:09:52.483Z,6.15
2023-03-03T17:12:37.628Z,6.05
2023-03-03T17:15:04.177Z,5.95
2023-03-03T17:17:42.823Z,5.69
2023-03-03T17:20:13.819Z,5.70
2023-03-03T17:22:59.341Z,5.63
2023-03-03T17:25:30.338Z,5.52
2023-03-03T17:28:15.159Z,5.46
2023-03-03T17:30:46.190Z,5.39
2023-03-03T17:33:31.536Z,5.31
2023-03-03T17:36:01.959Z,5.20
2023-03-03T17:38:37.762Z,5.14
2023-03-03T17:41:10.024Z,5.09
2023-03-03T17:43:39.491Z,5.07
2023-03-03T17:46:09.581Z,5.09
2023-03-03T17:48:45.998Z,5.07
2023-03-03T17:51:30.681Z,5.02
2023-03-03T17:54:23.636Z,4.99
2023-03-03T17:56:52.877Z,4.96
2023-03-03T17:59:22.570Z,4.91
2023-03-03T18:01:49.015Z,4.88
2023-03-03T18:04:34.395Z,4.82
2023-03-03T18:07:06.231Z,4.76
2023-03-03T18:09:39.821Z,4.74
2023-03-03T18:12:15.589Z,4.69
2023-03-03T18:15:02.769Z,4.64
2023-03-03T18:17:38.328Z,4.55
2023-03-03T18:20:23.500Z,4.51
2023-03-03T18:22:53.426Z,4.54
2023-03-03T18:25:19.881Z,4.52
2023-03-03T18:27:47.248Z,4.48
2023-03-03T18:30:17.042Z,4.44
2023-03-03T18:32:44.326Z,4.40
2023-03-03T18:35:38.392Z,4.35
2023-03-03T18:38:25.452Z,4.32
2023-03-03T18:40:59.533Z,4.24
2023-03-03T18:43:41.247Z,4.20
2023-03-03T18:46:09.300Z,4.15
2023-03-03T18:48:46.623Z,4.09
2023-03-03T18:51:13.115Z,4.05
2023-03-03T18:53:39.621Z,4.02
2023-03-03T18:56:09.549Z,3.97
2023-03-03T18:58:36.931Z,3.97
2023-03-03T19:01:12.590Z,3.96
2023-03-03T19:03:48.452Z,3.93
2023-03-03T19:06:32.411Z,3.89
2023-03-03T19:08:58.983Z,3.87
2023-03-03T19:11:34.612Z,3.81
2023-03-03T19:14:21.195Z,3.80
2023-03-03T19:16:49.620Z,3.79
2023-03-03T19:19:17.031Z,3.73
2023-03-03T19:21:44.403Z,3.70
2023-03-03T19:24:23.191Z,3.68
2023-03-03T19:27:10.020Z,3.67
2023-03-03T19:29:36.785Z,3.60
2023-03-03T19:32:29.581Z,3.62
2023-03-03T19:35:02.384Z,3.57
2023-03-03T19:37:47.466Z,3.55
2023-03-03T19:40:25.524Z,3.54
2023-03-03T19:43:00.668Z,3.49
2023-03-03T19:45:29.953Z,3.49
2023-03-03T19:48:08.967Z,3.45
2023-03-03T19:50:46.940Z,3.43
2023-03-03T19:53:13.405Z,3.42
2023-03-03T19:55:49.897Z,3.36
2023-03-03T19:58:25.275Z,3.36
2023-03-03T20:01:08.441Z,3.32
2023-03-03T20:03:41.114Z,3.30
2023-03-03T20:06:26.353Z,3.33
2023-03-03T20:09:02.564Z,3.30
2023-03-03T20:11:48.378Z,3.25
2023-03-03T20:14:32.333Z,3.20
2023-03-03T20:17:02.275Z,3.15
2023-03-03T20:19:34.785Z,3.08
2023-03-03T20:22:09.533Z,3.02
2023-03-03T20:24:41.712Z,3.02
2023-03-03T20:27:23.263Z,3.00
2023-03-03T20:29:50.196Z,2.94
2023-03-03T20:32:37.885Z,2.89
2023-03-03T20:35:25.951Z,2.84
2023-03-03T20:38:08.872Z,2.80
2023-03-03T20:40:50.654Z,2.76
2023-03-03T20:43:26.787Z,2.74
2023-03-03T20:46:00.636Z,2.72
2023-03-03T20:48:30.244Z,2.72
2023-03-03T20:50:56.898Z,2.69
2023-03-03T20:53:23.888Z,2.63
2023-03-03T20:55:53.239Z,2.62
2023-03-03T20:58:28.509Z,2.58
2023-03-03T21:01:12.636Z,2.58
2023-03-03T21:03:40.121Z,2.56
2023-03-03T21:06:09.226Z,2.53
2023-03-03T21:08:55.088Z,2.51
2023-03-03T21:11:22.716Z,2.53
2023-03-03T21:13:51.840Z,2.52
2023-03-03T21:16:18.409Z,2.50
2023-03-03T21:18:55.416Z,2.52
2023-03-03T21:21:21.943Z,2.50
2023-03-03T21:23:48.923Z,2.48
2023-03-03T21:26:15.413Z,2.49
2023-03-03T21:28:42.394Z,2.42
2023-03-03T21:31:13.291Z,2.45
2023-03-03T21:33:45.974Z,2.44
2023-03-03T21:36:13.858Z,2.40
2023-03-03T21:38:40.789Z,2.37
2023-03-03T21:41:07.405Z,2.38
2023-03-03T21:43:44.070Z,2.31
2023-03-03T21:46:10.634Z,2.31
2023-03-03T21:48:39.788Z,2.29
2023-03-03T21:51:06.525Z,2.28
2023-03-03T21:53:33.269Z,2.26
2023-03-03T21:55:59.841Z,2.24
2023-03-03T21:58:26.354Z,2.21
2023-03-03T22:00:53.027Z,2.18
2023-03-03T22:03:20.912Z,2.13
2023-03-03T22:05:49.123Z,2.10
2023-03-03T22:08:22.750Z,2.07
2023-03-03T22:10:51.496Z,2.04
2023-03-03T22:13:20.117Z,2.02
2023-03-03T22:15:47.417Z,1.96
2023-03-03T22:18:14.739Z,1.92
2023-03-03T22:20:41.402Z,1.88
2023-03-03T22:23:07.984Z,1.83
2023-03-03T22:25:34.476Z,1.82
2023-03-03T22:28:00.972Z,1.80
2023-03-03T22:30:27.577Z,1.77
2023-03-03T22:32:54.780Z,1.74
2023-03-03T22:35:21.679Z,1.69
2023-03-03T22:37:48.162Z,1.65
2023-03-03T22:40:14.865Z,1.63
2023-03-03T22:42:41.428Z,1.59
2023-03-03T22:45:11.320Z,1.59
2023-03-03T22:47:37.792Z,1.60
2023-03-03T22:50:04.950Z,1.59
2023-03-03T22:52:31.451Z,1.60
2023-03-03T22:54:59.022Z,1.58
2023-03-03T22:57:26.024Z,1.58
2023-03-03T22:59:52.569Z,1.57
2023-03-03T23:02:19.049Z,1.52
2023-03-03T23:04:45.690Z,1.48
2023-03-03T23:07:12.206Z,1.46
2023-03-03T23:09:38.735Z,1.44
2023-03-03T23:12:05.296Z,1.42
2023-03-03T23:14:32.261Z,1.40
2023-03-03T23:16:58.729Z,1.38
2023-03-03T23:19:25.233Z,1.39
2023-03-03T23:21:51.724Z,1.39
2023-03-03T23:24:18.213Z,1.39
2023-03-03T23:26:44.727Z,1.36
2023-03-03T23:29:11.204Z,1.35
2023-03-03T23:31:37.830Z,1.34
2023-03-03T23:34:04.428Z,1.32
2023-03-03T23:36:30.933Z,1.29
2023-03-03T23:38:57.418Z,1.26
2023-03-03T23:41:23.876Z,1.18
2023-03-03T23:43:50.492Z,1.19
2023-03-03T23:46:16.980Z,1.17
2023-03-03T23:48:43.521Z,1.14
2023-03-03T23:51:10.050Z,1.12
2023-03-03T23:53:36.629Z,1.10
2023-03-03T23:56:03.165Z,1.09
2023-03-03T23:58:29.756Z,1.08
